createdAt,value
2019-06-07T00:02:25.717Z,23.60
2019-06-07T00:07:29.593Z,23.60
2019-06-07T00:12:33.374Z,23.42
2019-06-07T00:17:37.171Z,23.24
2019-06-07T00:22:40.996Z,23.17
2019-06-07T00:27:44.836Z,23.41
2019-06-07T00:32:48.618Z,23.57
2019-06-07T00:37:52.389Z,23.55
2019-06-07T00:42:56.150Z,23.40
2019-06-07T00:48:00.081Z,23.40
2019-06-07T00:53:29.152Z,23.45
2019-06-07T00:58:09.415Z,23.45
2019-06-07T01:03:14.853Z,22.78
2019-06-07T01:08:21.568Z,22.78
2019-06-07T01:13:26.766Z,22.66
2019-06-07T01:18:38.440Z,22.69
2019-06-07T01:24:05.515Z,22.80
2019-06-07T01:28:41.290Z,22.80
2019-06-07T01:33:50.780Z,22.74
2019-06-07T01:38:50.749Z,22.92
2019-06-07T01:43:54.675Z,22.92
2019-06-07T01:48:58.454Z,23.00
2019-06-07T01:54:48.672Z,22.19
2019-06-07T01:59:08.058Z,22.05
2019-06-07T02:04:11.941Z,22.38
2019-06-07T02:09:15.816Z,22.38
2019-06-07T02:14:22.301Z,22.43
2019-06-07T02:19:27.463Z,22.57
2019-06-07T02:24:34.628Z,21.96
2019-06-07T02:29:36.371Z,21.78
2019-06-07T02:34:40.242Z,21.54
2019-06-07T02:39:44.030Z,21.54
2019-06-07T02:44:47.798Z,21.75
2019-06-07T02:49:51.738Z,21.57
2019-06-07T02:54:55.578Z,21.14
2019-06-07T03:00:16.634Z,21.65
2019-06-07T03:05:05.138Z,21.52
2019-06-07T03:10:09.829Z,21.32
2019-06-07T03:15:31.981Z,21.51
2019-06-07T03:20:20.607Z,21.62
2019-06-07T03:25:25.737Z,21.55
2019-06-07T03:30:48.630Z,21.76
2019-06-07T03:35:37.344Z,21.88
2019-06-07T03:40:40.743Z,21.79
2019-06-07T03:45:44.619Z,21.80
2019-06-07T03:51:03.851Z,21.81
2019-06-07T03:55:53.861Z,20.41
2019-06-07T04:01:01.978Z,19.79
2019-06-07T04:06:03.156Z,19.79
2019-06-07T04:11:06.913Z,19.51
2019-06-07T04:16:10.721Z,19.35
2019-06-07T04:21:14.547Z,19.13
2019-06-07T04:26:18.324Z,19.09
2019-06-07T04:31:22.240Z,19.12
2019-06-07T04:36:44.288Z,19.12
2019-06-07T04:41:33.555Z,18.95
2019-06-07T04:46:40.804Z,18.99
2019-06-07T04:51:42.726Z,18.86
2019-06-07T04:56:46.497Z,18.81
2019-06-07T05:01:50.265Z,18.74
2019-06-07T05:06:54.102Z,18.74
2019-06-07T05:11:57.918Z,18.77
2019-06-07T05:17:01.684Z,18.77
2019-06-07T05:22:05.593Z,18.86
2019-06-07T05:27:09.387Z,18.91
2019-06-07T05:32:13.376Z,18.97
2019-06-07T05:37:17.151Z,18.87
2019-06-07T05:42:20.928Z,18.87
2019-06-07T05:47:25.402Z,18.87
2019-06-07T05:52:29.348Z,18.95
2019-06-07T05:57:36.340Z,18.98
2019-06-07T06:02:58.708Z,18.98
2019-06-07T06:07:49.972Z,19.02
2019-06-07T06:12:51.653Z,18.97
2019-06-07T06:17:55.139Z,18.92
2019-06-07T06:22:58.964Z,18.95
2019-06-07T06:28:11.122Z,18.95
2019-06-07T06:33:27.068Z,19.18
2019-06-07T06:38:13.774Z,19.47
2019-06-07T06:43:17.567Z,19.34
2019-06-07T06:48:21.499Z,19.49
2019-06-07T06:53:25.292Z,19.48
2019-06-07T06:58:29.052Z,19.48
2019-06-07T07:04:09.551Z,19.97
2019-06-07T07:08:38.320Z,19.91
2019-06-07T07:13:44.482Z,19.62
2019-06-07T07:18:51.224Z,19.50
2019-06-07T07:24:19.513Z,19.38
2019-06-07T07:28:58.577Z,19.38
2019-06-07T07:39:07.907Z,19.53
2019-06-07T07:44:11.721Z,19.45
2019-06-07T07:49:15.495Z,19.45
2019-06-07T07:54:19.292Z,19.45
2019-06-07T07:59:41.121Z,20.17
2019-06-07T08:05:12.375Z,20.32
2019-06-07T08:09:34.296Z,20.32
2019-06-07T08:14:38.060Z,21.03
2019-06-07T08:19:41.842Z,21.50
2019-06-07T08:24:45.610Z,21.80
2019-06-07T08:30:10.221Z,21.66
2019-06-07T08:34:59.792Z,20.88
2019-06-07T08:40:01.814Z,21.54
2019-06-07T08:45:07.087Z,21.54
2019-06-07T08:50:10.948Z,21.93
2019-06-07T08:55:14.762Z,21.56
2019-06-07T09:00:43.356Z,21.70
2019-06-07T09:05:25.371Z,21.70
2019-06-07T09:10:29.221Z,21.88
2019-06-07T09:15:32.990Z,21.63
2019-06-07T09:20:47.698Z,21.79
2019-06-07T09:26:01.018Z,22.24
2019-06-07T09:30:57.883Z,22.39
2019-06-07T09:36:09.222Z,22.41
2019-06-07T09:41:09.642Z,22.41
2019-06-07T09:46:16.285Z,22.41
2019-06-07T09:51:20.543Z,22.39
2019-06-07T09:56:24.759Z,22.38
2019-06-07T10:01:28.546Z,22.46
2019-06-07T10:06:32.334Z,22.46
2019-06-07T10:11:36.116Z,22.45
2019-06-07T10:16:48.026Z,22.65
2019-06-07T10:21:45.403Z,22.65
2019-06-07T10:26:49.166Z,22.38
2019-06-07T10:31:53.003Z,22.69
2019-06-07T10:36:56.821Z,22.76
2019-06-07T10:42:00.939Z,22.72
2019-06-07T10:47:06.060Z,22.72
2019-06-07T10:52:11.519Z,22.77
2019-06-07T11:13:33.719Z,22.74
2019-06-07T11:18:37.505Z,22.85
2019-06-07T11:23:41.279Z,22.85
2019-06-07T11:28:45.082Z,22.83
2019-06-07T12:11:16.366Z,23.58
2019-06-07T12:16:20.511Z,23.58
2019-06-07T12:21:24.313Z,23.62
2019-06-07T12:26:28.134Z,23.74
2019-06-07T12:31:31.973Z,23.77
2019-06-07T12:36:35.741Z,23.88
2019-06-07T12:41:39.520Z,23.89
2019-06-07T12:46:43.295Z,23.89
2019-06-07T12:51:47.086Z,23.99
2019-06-07T12:56:52.439Z,23.99
2019-06-07T13:02:01.834Z,24.01
2019-06-07T13:07:02.028Z,24.07
2019-06-07T13:12:05.809Z,24.13
2019-06-07T13:17:09.608Z,24.13
2019-06-07T13:22:13.405Z,24.23
2019-06-07T13:27:18.278Z,24.23
2019-06-07T13:32:22.227Z,24.33
2019-06-07T13:37:26.034Z,24.33
2019-06-07T13:42:29.969Z,24.35
2019-06-07T13:47:33.867Z,24.39
2019-06-07T13:52:37.848Z,24.39
2019-06-07T13:57:41.687Z,24.44
2019-06-07T14:02:45.538Z,24.44
2019-06-07T14:07:49.392Z,24.43
2019-06-07T14:12:53.241Z,24.47
2019-06-07T14:17:57.041Z,24.44
2019-06-07T14:23:00.864Z,24.44
2019-06-07T14:28:11.019Z,24.55
2019-06-07T14:33:10.377Z,24.55
2019-06-07T14:38:14.136Z,24.58
2019-06-07T14:43:17.933Z,24.58
2019-06-07T14:48:21.718Z,24.67
2019-06-07T14:53:26.589Z,24.59
2019-06-07T14:58:31.732Z,24.61
2019-06-07T15:03:35.623Z,24.74
2019-06-07T15:08:39.394Z,24.75
2019-06-07T15:13:43.169Z,24.60
2019-06-07T15:18:47.300Z,24.62
2019-06-07T15:23:51.107Z,24.66
2019-06-07T15:28:54.858Z,24.69
2019-06-07T15:33:58.653Z,24.76
2019-06-07T15:39:02.439Z,24.73
2019-06-07T15:44:06.191Z,24.93
2019-06-07T15:49:09.989Z,24.93
2019-06-07T15:54:13.764Z,24.85
2019-06-07T15:59:17.545Z,24.90
2019-06-07T16:04:21.354Z,24.93
2019-06-07T16:09:25.128Z,24.92
2019-06-07T16:14:28.908Z,25.13
2019-06-07T16:19:34.308Z,25.05
2019-06-07T16:24:38.283Z,25.07
2019-06-07T16:29:42.759Z,25.07
2019-06-07T16:34:46.685Z,25.11
2019-06-07T16:39:50.443Z,25.19
2019-06-07T16:44:54.287Z,25.28
2019-06-07T16:49:58.059Z,25.28
2019-06-07T16:55:01.987Z,25.34
2019-06-07T17:00:06.331Z,25.50
2019-06-07T17:05:10.169Z,25.55
2019-06-07T17:10:14.022Z,25.45
2019-06-07T17:15:17.916Z,25.50
2019-06-07T17:20:23.338Z,25.50
2019-06-07T17:25:27.128Z,25.56
2019-06-07T17:30:30.980Z,25.56
2019-06-07T17:35:34.750Z,25.56
2019-06-07T17:40:38.608Z,25.56
2019-06-07T17:45:43.461Z,25.56
2019-06-07T17:50:47.821Z,25.49
2019-06-07T17:55:52.394Z,25.49
2019-06-07T18:00:56.246Z,25.58
2019-06-07T18:06:00.095Z,25.38
2019-06-07T18:11:04.404Z,25.37
2019-06-07T18:16:08.189Z,25.38
2019-06-07T18:21:12.031Z,25.37
2019-06-07T18:26:16.023Z,25.42
2019-06-07T18:31:19.859Z,25.48
2019-06-07T18:36:23.637Z,25.28
2019-06-07T18:41:27.413Z,25.21
2019-06-07T18:46:31.189Z,25.21
2019-06-07T18:51:35.045Z,25.40
2019-06-07T18:56:38.841Z,25.40
2019-06-07T19:01:42.690Z,25.25
2019-06-07T19:06:46.486Z,25.32
2019-06-07T19:11:50.895Z,25.17
2019-06-07T19:16:55.584Z,25.10
2019-06-07T19:22:00.164Z,25.10
2019-06-07T19:27:04.467Z,24.90
2019-06-07T19:32:08.411Z,24.97
2019-06-07T19:37:12.192Z,24.94
2019-06-07T19:42:15.970Z,24.94
2019-06-07T19:47:19.748Z,24.96
2019-06-07T19:52:23.509Z,24.93
2019-06-07T19:57:27.310Z,24.93
2019-06-07T20:02:31.094Z,24.91
2019-06-07T20:07:34.886Z,24.91
2019-06-07T20:12:39.623Z,25.00
2019-06-07T20:17:43.695Z,25.11
2019-06-07T20:22:47.469Z,25.11
2019-06-07T20:27:51.232Z,24.92
2019-06-07T20:32:55.192Z,25.04
2019-06-07T20:37:59.062Z,25.04
2019-06-07T20:43:03.521Z,24.96
2019-06-07T20:48:08.448Z,24.92
2019-06-07T20:53:12.488Z,24.89
2019-06-07T20:58:16.351Z,24.85
2019-06-07T21:03:20.143Z,24.85
2019-06-07T21:08:24.014Z,24.86
2019-06-07T21:13:28.135Z,24.85
2019-06-07T21:18:31.935Z,24.83
2019-06-07T21:23:35.777Z,24.85
2019-06-07T21:28:39.943Z,24.85
2019-06-07T21:33:43.933Z,24.83
2019-06-07T21:38:47.805Z,24.86
2019-06-07T21:43:51.597Z,24.93
2019-06-07T21:48:55.643Z,24.93
2019-06-07T21:53:59.442Z,24.96
2019-06-07T21:59:03.430Z,24.98
2019-06-07T22:04:07.545Z,24.98
2019-06-07T22:09:12.425Z,24.94
2019-06-07T22:14:16.251Z,24.94
2019-06-07T22:19:20.028Z,24.91
2019-06-07T22:24:23.813Z,24.91
2019-06-07T22:29:27.584Z,24.93
2019-06-07T22:34:31.440Z,24.84
2019-06-07T22:39:35.212Z,24.84
2019-06-07T22:44:40.269Z,24.82
2019-06-07T22:49:44.067Z,24.77
2019-06-07T22:54:47.848Z,24.77
2019-06-07T22:59:51.608Z,24.77
2019-06-07T23:04:55.482Z,25.20
2019-06-07T23:09:59.277Z,25.17
2019-06-07T23:15:03.078Z,25.17
2019-06-07T23:20:07.456Z,25.12
2019-06-07T23:25:12.233Z,25.26
2019-06-07T23:30:18.596Z,25.26
2019-06-07T23:35:22.873Z,25.23
2019-06-07T23:40:26.673Z,25.27
2019-06-07T23:45:30.505Z,25.27
2019-06-07T23:50:34.274Z,25.22
2019-06-07T23:55:38.086Z,25.25
